Time;durP1;ratioP1;P1;durP2;ratioP2;P2;SDS_P1;SDS_P2;PMS_P1;PMS_P2;Temp;Humidity;BMP_temperature;BMP_pressure;BME280_temperature;BME280_humidity;BME280_pressure;Samples;Min_cycle;Max_cycle;Signal;HPM_P1;HPM_P2
2024/03/08 00:01:16;;;;;;;43.40;21.80;;;;;;;29.84;77.87;100942.06;5058975;28;67113;-31
2024/03/08 00:03:46;;;;;;;38.45;22.02;;;;;;;29.87;77.48;100937.28;5060777;28;70672;-31
2024/03/08 00:06:17;;;;;;;34.90;21.70;;;;;;;29.93;77.61;100941.84;5056408;28;65699;-30
2024/03/08 00:08:48;;;;;;;34.42;20.35;;;;;;;29.96;79.20;100949.53;5058461;28;70006;-31
2024/03/08 00:11:18;;;;;;;35.88;21.33;;;;;;;29.98;77.80;100950.16;5059186;28;65729;-30
2024/03/08 00:13:50;;;;;;;28.33;20.48;;;;;;;29.98;78.19;100947.44;5060262;28;70144;-31
2024/03/08 00:16:20;;;;;;;28.50;19.63;;;;;;;29.96;77.81;100953.03;5052331;28;66455;-30
2024/03/08 00:18:51;;;;;;;25.02;17.85;;;;;;;29.98;77.83;100952.84;5042402;28;70073;-30
2024/03/08 00:21:22;;;;;;;30.45;18.17;;;;;;;30.01;78.58;100952.41;5044342;28;65606;-30
2024/03/08 00:23:56;;;;;;;27.05;17.55;;;;;;;30.02;79.61;100948.66;5047247;28;70184;-31
2024/03/08 00:26:26;;;;;;;22.40;16.05;;;;;;;30.09;79.75;100965.72;5059616;28;66309;-31
2024/03/08 00:28:58;;;;;;;19.80;15.80;;;;;;;30.01;80.02;100963.25;5056877;28;70500;-34
2024/03/08 00:31:30;;;;;;;23.00;16.50;;;;;;;29.91;79.69;100952.03;5061161;28;65475;-31
2024/03/08 00:34:01;;;;;;;21.33;15.63;;;;;;;30.10;79.60;100972.78;5060970;28;70383;-30
2024/03/08 00:36:32;;;;;;;20.63;15.23;;;;;;;30.11;79.98;100979.00;5060601;28;65144;-31
2024/03/08 00:39:06;;;;;;;20.20;15.77;;;;;;;30.09;80.04;100976.53;5056773;28;70263;-31
2024/03/08 00:41:36;;;;;;;22.65;17.20;;;;;;;30.12;79.45;100980.69;5054592;28;66277;-36
2024/03/08 00:44:07;;;;;;;23.20;17.05;;;;;;;30.12;79.52;100986.94;5046778;28;70043;-30
2024/03/08 00:46:38;;;;;;;26.17;16.73;;;;;;;30.15;80.02;100981.09;5059585;28;66596;-31
2024/03/08 00:49:09;;;;;;;27.17;17.08;;;;;;;30.14;79.50;100974.00;5059615;28;71133;-31
2024/03/08 00:51:39;;;;;;;22.30;16.98;;;;;;;30.20;79.58;100981.28;5049127;28;66381;-31
2024/03/08 00:54:10;;;;;;;21.20;16.73;;;;;;;30.20;80.22;100991.25;5054328;28;70143;-31
2024/03/08 00:56:40;;;;;;;20.55;16.40;;;;;;;30.20;79.09;101000.22;5059335;28;66090;-31
2024/03/08 00:59:14;;;;;;;24.90;17.20;;;;;;;30.16;78.89;100992.75;5056608;28;70122;-31
2024/03/08 01:01:45;;;;;;;17.30;15.60;;;;;;;30.11;79.13;100990.66;5059274;28;66350;-32
2024/03/08 01:04:15;;;;;;;20.53;15.70;;;;;;;30.12;78.84;101008.56;5059399;28;70203;-32
2024/03/08 01:06:47;;;;;;;18.70;16.40;;;;;;;30.15;78.48;100997.31;5058714;28;66916;-31
2024/03/08 01:09:17;;;;;;;17.02;15.00;;;;;;;30.15;78.66;101005.44;5058911;28;69855;-31
2024/03/08 01:11:49;;;;;;;19.87;15.20;;;;;;;30.15;78.53;101018.13;5055959;28;66090;-31
2024/03/08 01:14:23;;;;;;;24.80;16.98;;;;;;;30.18;78.39;101021.25;5059437;28;69280;-32
2024/03/08 01:16:54;;;;;;;30.00;19.52;;;;;;;30.19;78.11;101014.78;5057864;28;66619;-31
2024/03/08 01:19:25;;;;;;;20.42;16.52;;;;;;;30.21;78.24;101028.09;5054705;28;70090;-32
2024/03/08 01:21:56;;;;;;;25.65;17.25;;;;;;;30.22;78.11;101036.03;5058473;28;66526;-31
2024/03/08 01:24:27;;;;;;;21.80;16.52;;;;;;;30.24;78.03;101039.38;5058580;28;70067;-34
2024/03/08 01:26:57;;;;;;;19.77;16.15;;;;;;;30.25;78.04;101046.44;5056789;28;66726;-31
2024/03/08 01:29:29;;;;;;;21.27;15.50;;;;;;;30.28;77.85;101046.03;5058834;28;71009;-32
2024/03/08 01:32:01;;;;;;;17.90;15.70;;;;;;;30.30;77.92;101047.69;5059354;28;65484;-32
2024/03/08 01:34:33;;;;;;;21.67;16.42;;;;;;;30.32;77.83;101045.59;5057247;28;70654;-31
2024/03/08 01:37:03;;;;;;;19.02;16.27;;;;;;;30.33;77.89;101041.84;5058274;28;65971;-31
2024/03/08 01:39:34;;;;;;;17.65;15.77;;;;;;;30.17;77.77;101021.44;5061955;28;69985;-31
2024/03/08 01:42:05;;;;;;;20.80;15.80;;;;;;;30.36;77.30;101038.69;5052975;28;67009;-31
2024/03/08 01:44:36;;;;;;;18.67;16.65;;;;;;;30.32;77.25;101040.19;5044226;28;70342;-31
2024/03/08 01:47:07;;;;;;;23.48;16.33;;;;;;;30.40;77.62;101042.66;5051418;28;65973;-31
2024/03/08 01:49:39;;;;;;;18.00;15.60;;;;;;;30.40;76.92;101037.25;5057192;28;70545;-30
2024/03/08 01:52:09;;;;;;;;;;;;;;;30.34;77.79;101044.34;5046159;28;67011;-31
2024/03/08 01:54:41;;;;;;;16.63;14.90;;;;;;;30.46;77.30;101042.63;5055502;28;70526;-31
2024/03/08 01:57:12;;;;;;;20.20;16.17;;;;;;;30.48;76.66;101042.44;5053584;28;66573;-31
2024/03/08 01:59:43;;;;;;;22.05;15.50;;;;;;;30.50;76.97;101040.31;5060190;28;69925;-31
2024/03/08 02:02:19;;;;;;;17.75;15.85;;;;;;;30.54;76.86;101049.69;5053211;28;66228;-32
2024/03/08 02:04:52;;;;;;;25.63;15.65;;;;;;;30.55;76.46;101051.34;5059965;28;70676;-31
2024/03/08 02:07:23;;;;;;;20.50;15.82;;;;;;;30.59;76.67;101058.00;5061589;28;65974;-31
2024/03/08 02:09:54;;;;;;;21.27;16.33;;;;;;;30.59;76.53;101055.28;5059926;28;70212;-31
2024/03/08 02:12:25;;;;;;;20.70;16.33;;;;;;;30.63;76.87;101048.38;5061518;28;66082;-32
2024/03/08 02:14:56;;;;;;;18.08;15.75;;;;;;;30.47;76.53;101024.50;5061433;28;70626;-32
2024/03/08 02:17:26;;;;;;;20.30;16.02;;;;;;;30.67;76.79;101063.19;5059665;28;65969;-34
2024/03/08 02:19:57;;;;;;;21.88;16.50;;;;;;;30.71;76.02;101061.69;5053340;28;70048;-30
2024/03/08 02:22:30;;;;;;;20.95;16.83;;;;;;;30.73;75.96;101059.59;5049325;28;66564;-31
2024/03/08 02:25:03;;;;;;;30.80;18.50;;;;;;;30.76;75.86;101065.63;5060043;28;70444;-31
2024/03/08 02:27:33;;;;;;;21.23;17.63;;;;;;;30.78;76.29;101066.22;5056254;28;65269;-32
2024/03/08 02:30:05;;;;;;;24.58;17.42;;;;;;;30.72;75.95;101052.50;5047840;28;70336;-33
2024/03/08 02:32:35;;;;;;;;;;;;;;;30.72;76.81;101063.34;5062272;28;66561;-31
2024/03/08 02:35:06;;;;;;;17.75;15.88;;;;;;;30.87;75.79;101076.66;5060595;28;70484;-32
2024/03/08 02:37:38;;;;;;;26.30;15.77;;;;;;;30.89;75.67;101060.16;5059506;28;66469;-32
2024/03/08 02:40:09;;;;;;;;;;;;;;;30.83;76.01;101061.03;5073702;28;68873;-31
2024/03/08 02:42:39;;;;;;;24.08;19.75;;;;;;;30.96;75.61;101057.44;5049093;28;67043;-31
2024/03/08 02:45:10;;;;;;;52.70;27.00;;;;;;;30.98;75.40;101050.75;5059092;28;69270;-32
2024/03/08 02:47:41;;;;;;;34.80;26.30;;;;;;;30.99;75.48;101052.41;5060879;28;66413;-31
2024/03/08 02:50:16;;;;;;;28.73;23.03;;;;;;;31.03;75.41;101059.03;5049244;28;70145;-31
2024/03/08 02:52:46;;;;;;;27.05;20.70;;;;;;;31.07;75.54;101056.75;5060482;28;65996;-32
2024/03/08 02:55:16;;;;;;;25.98;19.75;;;;;;;31.11;75.12;101047.97;5060257;28;70588;-32
2024/03/08 02:57:47;;;;;;;26.52;19.17;;;;;;;31.13;74.92;101062.13;5060505;28;66026;-34
2024/03/08 03:00:19;;;;;;;24.58;19.75;;;;;;;31.16;74.69;101053.56;5058992;28;71687;-31
2024/03/08 03:02:53;;;;;;;28.90;21.05;;;;;;;31.21;74.91;101054.78;5060705;28;65186;-30
2024/03/08 03:05:25;;;;;;;32.78;22.00;;;;;;;31.23;75.01;101052.69;5059361;28;70219;-32
2024/03/08 03:07:56;;;;;;;28.07;20.03;;;;;;;31.25;74.99;101054.13;5060692;28;66493;-31
2024/03/08 03:10:27;;;;;;;24.00;20.00;;;;;;;31.30;74.73;101053.47;5060808;28;70287;-33
2024/03/08 03:12:58;;;;;;;26.80;19.52;;;;;;;31.31;74.79;101050.53;5058751;28;66628;-33
2024/03/08 03:15:28;;;;;;;24.98;20.73;;;;;;;31.35;74.67;101045.53;5060600;28;69972;-31
2024/03/08 03:18:00;;;;;;;28.00;19.92;;;;;;;31.39;74.52;101041.34;5060975;28;66751;-33
2024/03/08 03:20:39;;;;;;;25.65;19.77;;;;;;;31.43;74.31;101030.91;5041251;28;70363;-31
2024/03/08 03:23:14;;;;;;;31.42;20.27;;;;;;;31.47;74.21;101038.34;5059216;28;66735;-31
2024/03/08 03:25:46;;;;;;;21.75;17.83;;;;;;;31.49;74.26;101035.44;5058398;28;70583;-31
2024/03/08 03:28:17;;;;;;;31.23;18.47;;;;;;;31.53;74.03;101039.34;5057733;28;66834;-32
2024/03/08 03:30:48;;;;;;;;;;;;;;;31.47;74.21;101029.41;5060224;28;70127;-31
2024/03/08 03:33:18;;;;;;;25.60;18.20;;;;;;;31.59;74.09;101036.59;5052284;28;67095;-32
2024/03/08 03:35:51;;;;;;;21.55;17.08;;;;;;;31.61;73.77;101029.06;5059844;28;69048;-32
2024/03/08 03:38:23;;;;;;;19.55;16.08;;;;;;;31.66;73.59;101025.69;5058288;28;66500;-32
2024/03/08 03:40:57;;;;;;;;;;;;;;;31.62;73.74;101021.75;5059319;28;70188;-36
2024/03/08 03:43:27;;;;;;;24.20;16.73;;;;;;;31.71;73.63;101016.91;5060110;28;66038;-32
2024/03/08 03:45:58;;;;;;;25.45;17.35;;;;;;;31.69;73.66;100997.31;5060266;28;69541;-32
2024/03/08 03:48:28;;;;;;;27.50;16.50;;;;;;;31.69;73.33;101000.84;5055006;28;66669;-33
2024/03/08 03:50:59;;;;;;;23.23;15.77;;;;;;;31.78;73.25;101006.81;5056955;28;69957;-32
2024/03/08 03:53:30;;;;;;;24.00;15.98;;;;;;;31.82;73.29;100997.19;5059288;28;67480;-32
2024/03/08 03:56:00;;;;;;;27.90;15.95;;;;;;;31.85;73.25;100991.31;5060152;28;70749;-31
2024/03/08 03:58:31;;;;;;;24.63;16.38;;;;;;;31.87;73.37;100989.16;5060602;28;65576;-32
2024/03/08 04:01:01;;;;;;;18.92;14.73;;;;;;;31.90;73.08;100977.91;5059564;28;70991;-31
2024/03/08 04:03:32;;;;;;;20.65;15.27;;;;;;;31.94;72.99;100984.56;5055250;28;66610;-32
2024/03/08 04:06:04;;;;;;;20.00;15.10;;;;;;;31.73;72.93;100933.41;5060876;28;68860;-32
2024/03/08 04:08:35;;;;;;;20.50;14.48;;;;;;;31.94;73.05;100964.72;5058959;28;66414;-32
2024/03/08 04:11:06;;;;;;;26.05;15.80;;;;;;;32.02;72.93;100962.53;5059892;28;69706;-32
2024/03/08 04:13:37;;;;;;;19.63;15.40;;;;;;;32.05;72.77;100953.94;5059247;28;65800;-33
2024/03/08 04:16:08;;;;;;;27.75;15.43;;;;;;;32.08;72.78;100954.56;5045840;28;71324;-32
2024/03/08 04:18:38;;;;;;;21.95;14.07;;;;;;;32.09;72.72;100945.34;5057971;28;66198;-31
2024/03/08 04:21:09;;;;;;;23.30;15.43;;;;;;;32.12;72.79;100947.59;5060069;28;69483;-32
2024/03/08 04:23:40;;;;;;;19.25;14.60;;;;;;;32.10;72.50;100938.88;5055551;28;66092;-31
2024/03/08 04:26:12;;;;;;;15.65;13.98;;;;;;;32.18;72.47;100935.84;5059775;28;70463;-32
2024/03/08 04:28:45;;;;;;;20.40;15.02;;;;;;;32.20;72.45;100925.59;5059794;28;66629;-35
2024/03/08 04:31:15;;;;;;;19.50;14.80;;;;;;;32.24;72.35;100929.53;5058434;28;69825;-32
2024/03/08 04:33:46;;;;;;;19.13;13.73;;;;;;;32.25;72.29;100923.03;5060058;28;66073;-35
2024/03/08 04:36:16;;;;;;;22.05;14.10;;;;;;;32.27;71.96;100919.03;5059516;28;70198;-32
2024/03/08 04:38:47;;;;;;;15.88;14.25;;;;;;;32.27;71.88;100902.75;5062204;28;66068;-33
2024/03/08 04:41:18;;;;;;;17.92;13.55;;;;;;;32.33;72.06;100914.56;5060096;28;70234;-33
2024/03/08 04:43:49;;;;;;;15.73;13.90;;;;;;;32.36;71.93;100910.56;5059856;28;66343;-33
2024/03/08 04:46:20;;;;;;;19.23;13.87;;;;;;;32.37;71.91;100907.59;5059656;28;69795;-36
2024/03/08 04:48:50;;;;;;;21.92;13.98;;;;;;;32.42;71.72;100898.78;5046599;28;65577;-33
2024/03/08 04:51:21;;;;;;;18.58;13.10;;;;;;;32.44;71.74;100900.22;5058925;28;69608;-32
2024/03/08 04:53:52;;;;;;;18.42;12.40;;;;;;;32.47;71.60;100885.38;5058101;28;65762;-32
2024/03/08 04:56:22;;;;;;;18.58;12.10;;;;;;;32.48;71.64;100890.59;5059047;28;70431;-32
2024/03/08 04:58:53;;;;;;;19.63;13.02;;;;;;;32.43;71.52;100874.13;5058050;28;65348;-31
2024/03/08 05:01:24;;;;;;;15.35;12.35;;;;;;;32.55;71.46;100881.50;5058057;28;69571;-32
2024/03/08 05:03:55;;;;;;;13.60;12.13;;;;;;;32.51;71.17;100867.56;5059787;28;65808;-32
2024/03/08 05:06:33;;;;;;;13.27;11.93;;;;;;;32.56;71.37;100869.56;5057685;28;70029;-32
2024/03/08 05:09:13;;;;;;;16.67;12.83;;;;;;;32.58;71.18;100856.59;5060169;28;65410;-32
2024/03/08 05:11:45;;;;;;;13.68;12.02;;;;;;;32.63;71.40;100856.75;5056984;28;69309;-32
2024/03/08 05:14:20;;;;;;;13.05;11.75;;;;;;;32.69;70.88;100855.81;5058780;28;65377;-32
2024/03/08 05:16:51;;;;;;;15.32;11.50;;;;;;;32.70;70.68;100846.59;5057975;28;70174;-32
2024/03/08 05:19:21;;;;;;;12.93;10.60;;;;;;;32.67;71.02;100841.63;5055528;28;66637;-33
2024/03/08 05:21:52;;;;;;;12.18;11.02;;;;;;;32.74;70.68;100831.50;5058705;28;70248;-32
2024/03/08 05:24:23;;;;;;;14.23;11.88;;;;;;;32.75;70.64;100838.56;5058742;28;65894;-32
2024/03/08 05:26:53;;;;;;;12.15;10.88;;;;;;;32.80;70.65;100835.97;5042943;28;70716;-33
2024/03/08 05:29:24;;;;;;;11.05;10.35;;;;;;;32.85;70.41;100822.53;5045903;28;65860;-32
2024/03/08 05:32:04;;;;;;;13.30;10.65;;;;;;;32.87;70.58;100824.97;5058297;28;69934;-32
2024/03/08 05:34:34;;;;;;;19.40;10.70;;;;;;;32.85;70.49;100810.84;5059026;28;65982;-32
2024/03/08 05:37:09;;;;;;;17.35;10.75;;;;;;;32.91;69.93;100816.13;5058575;28;70513;-33
2024/03/08 05:39:40;;;;;;;11.52;10.43;;;;;;;32.87;70.00;100798.63;5059324;28;66855;-32
2024/03/08 05:42:11;;;;;;;13.25;10.60;;;;;;;32.93;70.09;100813.16;5045607;28;70254;-31
2024/03/08 05:44:51;;;;;;;12.23;10.98;;;;;;;32.97;69.74;100808.13;5045484;28;65887;-32
2024/03/08 05:47:23;;;;;;;10.63;9.80;;;;;;;32.98;69.92;100793.44;5043475;28;70839;-33
2024/03/08 05:49:57;;;;;;;10.55;9.55;;;;;;;33.02;69.80;100794.69;5051379;28;66623;-31
2024/03/08 05:52:28;;;;;;;10.07;9.23;;;;;;;33.05;69.74;100781.44;5051576;28;69755;-32
2024/03/08 05:54:58;;;;;;;10.68;9.77;;;;;;;33.08;69.73;100777.41;5052792;28;65679;-31
2024/03/08 05:57:29;;;;;;;11.55;10.23;;;;;;;33.09;69.63;100779.06;5044205;28;70703;-32
2024/03/08 05:59:59;;;;;;;10.45;9.57;;;;;;;33.12;69.54;100773.16;5049007;28;65742;-32
2024/03/08 06:02:40;;;;;;;11.32;9.80;;;;;;;33.15;69.45;100757.22;5041101;28;69378;-32
2024/03/08 06:05:11;;;;;;;10.13;9.32;;;;;;;33.16;69.18;100760.75;5058558;28;65209;-36
2024/03/08 06:07:42;;;;;;;10.98;9.85;;;;;;;33.17;69.09;100748.78;5058474;28;69856;-33
2024/03/08 06:10:13;;;;;;;9.88;9.07;;;;;;;33.24;69.14;100760.38;5058288;28;66862;-32
2024/03/08 06:12:46;;;;;;;9.38;8.63;;;;;;;33.28;69.30;100753.38;5057740;28;69152;-31
2024/03/08 06:15:20;;;;;;;9.73;8.82;;;;;;;33.31;68.95;100750.19;5057372;28;66829;-32
2024/03/08 06:17:52;;;;;;;9.52;8.75;;;;;;;33.35;69.04;100745.94;5058286;28;70003;-32
2024/03/08 06:20:26;;;;;;;9.07;8.27;;;;;;;33.36;68.87;100742.13;5044390;28;66259;-31
2024/03/08 06:22:59;;;;;;;8.98;8.27;;;;;;;33.41;68.69;100738.72;5040257;28;70928;-32
2024/03/08 06:25:30;;;;;;;10.15;8.55;;;;;;;33.44;68.89;100731.97;5058526;28;66548;-32
2024/03/08 06:28:00;;;;;;;9.88;8.23;;;;;;;33.48;68.87;100727.69;5057126;28;70092;-33
2024/03/08 06:30:31;;;;;;;9.25;8.45;;;;;;;33.49;68.64;100718.44;5058276;28;66448;-32
2024/03/08 06:33:02;;;;;;;9.38;8.60;;;;;;;33.55;68.40;100722.97;5055571;28;70799;-33
2024/03/08 06:35:33;;;;;;;8.40;7.60;;;;;;;33.52;68.81;100715.25;5057293;28;66747;-32
2024/03/08 06:38:07;;;;;;;8.65;7.97;;;;;;;33.61;67.95;100716.56;5063019;28;70159;-32
2024/03/08 06:40:37;;;;;;;8.95;8.15;;;;;;;33.64;68.61;100716.06;5060693;27;65816;-33
2024/03/08 06:43:11;;;;;;;10.95;8.02;;;;;;;33.67;68.14;100715.56;5061127;28;69891;-33
2024/03/08 06:45:48;;;;;;;8.40;7.65;;;;;;;33.71;68.36;100705.88;5059424;28;66408;-32
2024/03/08 06:48:23;;;;;;;8.15;7.45;;;;;;;33.70;67.70;100698.75;5060029;28;70567;-31
2024/03/08 06:50:54;;;;;;;8.50;7.88;;;;;;;33.76;68.25;100695.06;5061092;28;65169;-31
2024/03/08 06:53:24;;;;;;;8.40;7.60;;;;;;;33.81;67.65;100697.88;5060220;28;69482;-32
2024/03/08 06:55:57;;;;;;;7.90;7.30;;;;;;;33.81;67.73;100684.28;5060242;28;66485;-32
2024/03/08 06:58:29;;;;;;;9.88;7.22;;;;;;;33.89;67.88;100685.78;5061316;28;71487;-33
2024/03/08 07:01:07;;;;;;;7.90;7.13;;;;;;;33.94;67.76;100694.03;5058365;28;65809;-32
2024/03/08 07:03:39;;;;;;;7.75;7.05;;;;;;;33.98;67.58;100675.31;5061148;28;70115;-31
2024/03/08 07:06:14;;;;;;;6.70;6.10;;;;;;;34.02;67.26;100674.56;5060954;28;66853;-32
2024/03/08 07:08:45;;;;;;;8.60;6.07;;;;;;;34.08;67.32;100672.78;5060731;28;70833;-32
2024/03/08 07:11:18;;;;;;;6.55;6.10;;;;;;;34.12;67.13;100671.22;5061089;28;65827;-32
2024/03/08 07:13:48;;;;;;;7.28;6.78;;;;;;;34.17;67.36;100665.84;5059779;28;70501;-32
2024/03/08 07:16:21;;;;;;;7.10;6.60;;;;;;;34.21;66.96;100661.56;5060209;28;65671;-33
2024/03/08 07:18:53;;;;;;;6.80;6.22;;;;;;;34.05;67.27;100624.31;5061350;28;69847;-32
2024/03/08 07:21:25;;;;;;;7.63;6.93;;;;;;;34.31;66.74;100654.63;5057590;28;66571;-33
2024/03/08 07:26:30;;;;;;;11.23;6.13;;;;;;;34.39;66.52;100640.59;5060934;28;66643;-33
2024/03/08 07:29:04;;;;;;;6.60;5.97;;;;;;;34.44;66.42;100638.78;5059435;28;70642;-32
2024/03/08 07:34:08;;;;;;;5.93;5.30;;;;;;;34.55;66.15;100637.00;5059921;28;70050;-34
2024/03/08 07:36:39;;;;;;;6.20;5.60;;;;;;;34.60;66.23;100637.13;5060688;28;66320;-32
2024/03/08 07:39:13;;;;;;;5.80;5.40;;;;;;;34.61;65.98;100636.03;5055018;28;70005;-35
2024/03/08 07:41:44;;;;;;;5.05;4.57;;;;;;;34.72;66.11;100647.06;5057103;28;66739;-33
2024/03/08 07:44:20;;;;;;;5.82;5.43;;;;;;;34.75;65.44;100649.28;5048843;28;70597;-33
2024/03/08 07:46:51;;;;;;;4.88;4.57;;;;;;;34.82;65.55;100644.47;5037365;28;66135;-33
2024/03/08 07:49:29;;;;;;;7.85;4.90;;;;;;;34.89;65.84;100628.75;5056902;28;70384;-32
2024/03/08 07:52:15;;;;;;;4.90;4.60;;;;;;;34.95;65.32;100627.75;5059149;28;66587;-32
2024/03/08 07:54:49;;;;;;;5.35;4.95;;;;;;;35.01;65.62;100623.19;5042541;28;70092;-32
2024/03/08 07:57:20;;;;;;;4.85;4.43;;;;;;;35.06;65.60;100621.34;5060744;28;66019;-33
2024/03/08 07:59:53;;;;;;;6.07;4.93;;;;;;;35.04;65.34;100619.94;5059357;28;69847;-33
2024/03/08 08:02:43;;;;;;;5.30;4.90;;;;;;;35.20;64.82;100629.16;5060973;28;65782;-32
2024/03/08 08:05:14;;;;;;;4.57;4.28;;;;;;;35.25;64.79;100623.75;5049350;28;70490;-33
2024/03/08 08:07:46;;;;;;;5.73;4.97;;;;;;;35.32;64.63;100629.81;5057359;28;66427;-33
2024/03/08 08:10:24;;;;;;;5.70;4.82;;;;;;;35.38;64.54;100628.78;5060167;28;69672;-32
2024/03/08 08:12:57;;;;;;;4.50;3.90;;;;;;;35.41;65.22;100620.09;5058074;28;67275;-33
2024/03/08 08:15:28;;;;;;;4.65;4.35;;;;;;;35.52;65.01;100616.41;5060868;28;70093;-32
2024/03/08 08:17:59;;;;;;;5.20;4.80;;;;;;;35.58;64.40;100626.31;5061530;28;66175;-37
2024/03/08 08:20:31;;;;;;;4.57;4.17;;;;;;;35.66;64.84;100619.56;5055669;28;69918;-33
2024/03/08 08:23:02;;;;;;;4.75;4.35;;;;;;;35.68;64.23;100619.28;5060260;28;65191;-33
2024/03/08 08:25:34;;;;;;;8.18;4.05;;;;;;;35.75;64.39;100620.72;5054747;28;70493;-32
2024/03/08 08:28:10;;;;;;;4.30;3.92;;;;;;;35.84;64.03;100604.69;5059899;28;66228;-32
2024/03/08 08:30:46;;;;;;;4.85;4.20;;;;;;;35.92;64.40;100620.56;5044772;28;70379;-35
2024/03/08 08:33:17;;;;;;;6.28;4.15;;;;;;;35.97;64.22;100620.63;5039947;28;67412;-33
2024/03/08 08:35:47;;;;;;;7.95;4.07;;;;;;;36.08;63.49;100615.25;5051618;28;69504;-33
2024/03/08 08:38:19;;;;;;;4.00;3.70;;;;;;;36.13;63.56;100609.81;5043917;28;67389;-33
2024/03/08 08:40:50;;;;;;;4.00;3.70;;;;;;;36.19;63.91;100614.22;5046944;28;70508;-32
2024/03/08 08:43:24;;;;;;;5.88;3.63;;;;;;;36.24;63.80;100611.53;5054092;28;66091;-33
2024/03/08 08:45:55;;;;;;;6.07;4.13;;;;;;;36.31;63.56;100609.41;5046896;28;70589;-33
2024/03/08 08:48:28;;;;;;;6.00;3.72;;;;;;;36.38;63.62;100612.72;5059498;28;66078;-33
2024/03/08 08:50:59;;;;;;;4.35;3.55;;;;;;;36.43;62.86;100610.00;5059525;28;70082;-33
2024/03/08 08:53:29;;;;;;;;;;;;;;;36.41;62.44;100611.38;5058525;28;66321;-33
2024/03/08 08:56:01;;;;;;;3.78;3.45;;;;;;;36.58;62.99;100608.47;5060101;28;71271;-33
2024/03/08 08:58:32;;;;;;;3.50;3.13;;;;;;;36.64;62.92;100604.69;5059884;28;66704;-33
2024/03/08 09:01:05;;;;;;;;;;;;;;;36.58;61.15;100611.22;5057606;28;70129;-33
2024/03/08 09:03:37;;;;;;;3.58;3.28;;;;;;;36.75;62.92;100606.38;5059180;28;65453;-35
2024/03/08 09:06:10;;;;;;;3.85;3.42;;;;;;;36.82;62.37;100601.47;5059473;28;70331;-31
2024/03/08 09:08:41;;;;;;;3.53;3.25;;;;;;;36.89;62.64;100603.97;5058500;28;65603;-34
2024/03/08 09:11:12;;;;;;;3.33;3.10;;;;;;;36.93;62.34;100590.59;5059603;28;70175;-35
2024/03/08 09:13:46;;;;;;;;;;;;;;;36.81;60.04;100594.38;5059582;28;66457;-34
2024/03/08 09:16:16;;;;;;;4.20;3.80;;;;;;;37.04;62.04;100598.56;5059386;28;69778;-33
2024/03/08 09:18:48;;;;;;;;;;;;;;;37.01;61.56;100598.25;5060489;28;65282;-34
2024/03/08 09:21:18;;;;;;;6.70;3.33;;;;;;;37.18;61.63;100590.66;5055901;28;69681;-36
2024/03/08 09:23:52;;;;;;;4.90;3.90;;;;;;;37.10;61.33;100602.13;5058544;28;66611;-34
2024/03/08 09:26:23;;;;;;;7.70;4.07;;;;;;;37.09;61.26;100600.50;5057050;28;70303;-32
2024/03/08 09:28:58;;;;;;;5.38;4.20;;;;;;;37.21;60.74;100592.88;5028572;28;66069;-33
2024/03/08 09:31:29;;;;;;;11.67;3.60;;;;;;;37.29;60.20;100600.53;5049263;28;70111;-32
2024/03/08 09:33:59;;;;;;;5.90;4.27;;;;;;;37.34;60.85;100597.81;5058132;28;66129;-33
2024/03/08 09:36:32;;;;;;;6.88;4.40;;;;;;;37.33;60.74;100590.72;5057893;28;70534;-32
2024/03/08 09:39:03;;;;;;;5.07;4.50;;;;;;;37.37;60.18;100590.16;5053828;28;66763;-32
2024/03/08 09:41:34;;;;;;;4.85;4.20;;;;;;;37.29;60.81;100589.59;5057739;28;69523;-32
2024/03/08 09:44:05;;;;;;;5.50;3.90;;;;;;;37.37;60.38;100590.97;5057991;28;66446;-31
2024/03/08 09:46:36;;;;;;;5.25;3.53;;;;;;;37.37;60.96;100601.09;5059229;28;69243;-33
2024/03/08 09:49:08;;;;;;;10.40;4.53;;;;;;;37.41;60.79;100596.72;5057858;28;66079;-30
2024/03/08 09:51:42;;;;;;;4.57;4.13;;;;;;;37.37;60.01;100601.09;5059163;28;69849;-34
2024/03/08 09:54:13;;;;;;;14.23;4.05;;;;;;;37.35;60.10;100593.16;5044878;28;65322;-33
2024/03/08 09:56:52;;;;;;;8.10;4.07;;;;;;;37.39;60.48;100601.63;5057278;28;69373;-35
2024/03/08 10:01:58;;;;;;;11.07;4.38;;;;;;;37.21;59.94;100603.00;5049669;28;70216;-33
2024/03/08 10:04:32;;;;;;;6.18;4.28;;;;;;;37.25;60.33;100598.59;5047389;28;66672;-35
2024/03/08 10:07:03;;;;;;;7.70;4.43;;;;;;;37.27;59.74;100601.91;5057930;28;69630;-33
2024/03/08 10:09:35;;;;;;;6.85;4.45;;;;;;;37.23;60.12;100601.63;5056613;28;66110;-33
2024/03/08 10:12:07;;;;;;;11.10;4.28;;;;;;;37.21;59.96;100598.34;5058932;28;69559;-34
2024/03/08 10:14:41;;;;;;;13.13;4.88;;;;;;;37.21;60.12;100603.81;5061394;28;66134;-35
2024/03/08 10:17:11;;;;;;;13.20;4.72;;;;;;;37.21;59.73;100609.28;5057457;28;70878;-32
2024/03/08 10:19:51;;;;;;;9.27;4.18;;;;;;;37.00;58.95;100572.00;5061909;28;65720;-34
2024/03/08 10:22:23;;;;;;;8.30;4.60;;;;;;;37.12;60.16;100605.44;5045723;28;70445;-33
2024/03/08 10:24:53;;;;;;;6.55;4.55;;;;;;;37.06;59.53;100609.25;5056770;28;66607;-33
2024/03/08 10:27:26;;;;;;;10.40;4.00;;;;;;;37.04;60.13;100604.03;5061776;28;69567;-32
2024/03/08 10:29:57;;;;;;;9.85;4.22;;;;;;;36.99;59.42;100612.19;5046919;28;66709;-33
2024/03/08 10:32:30;;;;;;;8.82;4.05;;;;;;;36.93;59.35;100612.47;5060202;28;70033;-33
2024/03/08 10:35:01;;;;;;;11.07;4.45;;;;;;;36.94;59.88;100620.38;5062355;28;65541;-33
2024/03/08 10:37:33;;;;;;;4.83;4.17;;;;;;;36.85;59.83;100617.34;5047999;28;70470;-33
2024/03/08 10:40:11;;;;;;;5.53;4.03;;;;;;;36.78;60.61;100629.63;5057175;28;66695;-33
2024/03/08 10:42:59;;;;;;;6.28;4.13;;;;;;;36.70;60.25;100633.69;5049387;28;70866;-35
2024/03/08 10:45:38;;;;;;;10.73;4.57;;;;;;;36.50;60.21;100604.31;5061398;28;66565;-33
2024/03/08 10:48:35;;;;;;;14.40;4.28;;;;;;;36.67;60.46;100636.94;5057786;28;70386;-33
2024/03/08 10:51:11;;;;;;;107.53;10.05;;;;;;;36.35;59.61;100640.56;5061265;28;66289;-33
2024/03/08 10:53:44;;;;;;;53.13;7.43;;;;;;;36.30;59.42;100621.41;5060682;28;69910;-34
2024/03/08 10:56:15;;;;;;;39.10;5.80;;;;;;;36.47;60.25;100654.03;5056135;28;65879;-33
2024/03/08 10:58:47;;;;;;;25.58;6.18;;;;;;;36.40;59.81;100653.44;5057838;28;69911;-32
2024/03/08 11:01:18;;;;;;;30.90;5.78;;;;;;;36.37;60.70;100654.78;5047981;28;65654;-34
2024/03/08 11:03:52;;;;;;;21.40;5.80;;;;;;;36.34;60.60;100660.78;5054295;28;69809;-32
2024/03/08 11:06:38;;;;;;;13.13;6.20;;;;;;;36.24;60.63;100666.16;5047054;28;65747;-32
2024/03/08 11:09:27;;;;;;;21.08;8.45;;;;;;;36.40;59.86;100658.91;5045145;28;69181;-34
2024/03/08 11:12:29;;;;;;;22.67;11.23;;;;;;;36.36;59.90;100660.50;5051161;28;66364;-32
2024/03/08 11:15:04;;;;;;;16.35;8.80;;;;;;;36.31;60.32;100666.75;5042487;28;69117;-32
2024/03/08 11:17:37;;;;;;;16.92;8.65;;;;;;;36.20;60.24;100671.31;5053002;28;66695;-33
2024/03/08 11:20:17;;;;;;;18.08;8.23;;;;;;;36.11;60.07;100672.06;5039177;28;69352;-32
2024/03/08 11:22:54;;;;;;;14.68;6.82;;;;;;;36.07;60.70;100681.88;5049277;28;66658;-34
2024/03/08 11:25:43;;;;;;;10.35;7.65;;;;;;;35.94;61.25;100683.94;5044807;28;70139;-36
2024/03/08 11:28:26;;;;;;;8.90;6.72;;;;;;;35.89;61.36;100692.06;5043278;28;65780;-34
2024/03/08 11:31:00;;;;;;;13.48;5.88;;;;;;;35.90;61.41;100690.97;5047155;28;69892;-32
2024/03/08 11:33:36;;;;;;;7.28;5.25;;;;;;;35.73;61.64;100698.47;5050045;28;65502;-31
2024/03/08 11:36:17;;;;;;;11.63;5.35;;;;;;;35.80;61.41;100707.25;5049205;28;69700;-35
2024/03/08 11:38:48;;;;;;;5.90;4.90;;;;;;;35.76;62.57;100706.13;5045907;28;65356;-32
2024/03/08 11:41:20;;;;;;;11.15;5.32;;;;;;;35.81;62.42;100711.66;5048572;28;70349;-32
2024/03/08 11:44:07;;;;;;;5.95;5.35;;;;;;;35.72;62.57;100713.19;5044441;28;66353;-34
2024/03/08 11:46:39;;;;;;;9.95;6.07;;;;;;;35.70;62.40;100709.91;5047165;28;70080;-32
2024/03/08 11:49:11;;;;;;;8.65;5.60;;;;;;;35.69;62.42;100711.81;5044163;28;65374;-33
2024/03/08 11:51:42;;;;;;;;;;;;;;;35.54;62.79;100712.41;5042691;28;69761;-35